Terminal Aerodrome Forecast
Issued by NWS

Current Version | Previous Version | Text Only | Print | Product List | Glossary Off
Versions: 1 2 3 4 5 6 7 8 9 10 11 12 13 14 15 16 17 18 19 20 21 22

000
FTUS41 KPBZ 131700
TAFHLG
TAF
KHLG 131724Z 1318/1418 31010KT P6SM SCT025 BKN035
      TEMPO 1318/1320 BKN025
     FM140100 34005KT P6SM SCT025
     FM141500 VRB03KT P6SM SCT050=

USA.gov is the U.S. government's official web portal to all federal, state and local government web resources and services.